sensor_id;sensor_type;location;lat;lon;timestamp;P1;durP1;ratioP1;P2;durP2;ratioP2
47912;SDS011;33676;51.006;17.180;2023-07-16T00:00:41;5.50;;;4.90;;
47912;SDS011;33676;51.006;17.180;2023-07-16T00:03:29;6.00;;;5.20;;
47912;SDS011;33676;51.006;17.180;2023-07-16T00:05:58;4.50;;;4.10;;
47912;SDS011;33676;51.006;17.180;2023-07-16T00:08:26;5.60;;;5.10;;
47912;SDS011;33676;51.006;17.180;2023-07-16T00:10:55;11.20;;;5.10;;
47912;SDS011;33676;51.006;17.180;2023-07-16T00:13:23;9.10;;;5.80;;
47912;SDS011;33676;51.006;17.180;2023-07-16T00:15:51;6.70;;;6.10;;
47912;SDS011;33676;51.006;17.180;2023-07-16T00:18:20;6.30;;;5.80;;
47912;SDS011;33676;51.006;17.180;2023-07-16T00:20:48;7.50;;;6.90;;
47912;SDS011;33676;51.006;17.180;2023-07-16T00:23:17;6.40;;;5.80;;
47912;SDS011;33676;51.006;17.180;2023-07-16T00:25:45;6.60;;;6.10;;
47912;SDS011;33676;51.006;17.180;2023-07-16T00:28:13;6.70;;;5.60;;
47912;SDS011;33676;51.006;17.180;2023-07-16T00:30:42;4.90;;;4.40;;
47912;SDS011;33676;51.006;17.180;2023-07-16T00:33:11;6.50;;;5.20;;
47912;SDS011;33676;51.006;17.180;2023-07-16T00:35:39;5.30;;;4.90;;
47912;SDS011;33676;51.006;17.180;2023-07-16T00:40:42;6.50;;;5.90;;
47912;SDS011;33676;51.006;17.180;2023-07-16T00:43:11;6.20;;;5.70;;
47912;SDS011;33676;51.006;17.180;2023-07-16T00:45:39;5.50;;;5.10;;
47912;SDS011;33676;51.006;17.180;2023-07-16T00:48:09;5.50;;;5.00;;
47912;SDS011;33676;51.006;17.180;2023-07-16T00:50:38;5.10;;;4.70;;
47912;SDS011;33676;51.006;17.180;2023-07-16T00:53:09;7.30;;;6.80;;
47912;SDS011;33676;51.006;17.180;2023-07-16T00:55:38;4.80;;;4.40;;
47912;SDS011;33676;51.006;17.180;2023-07-16T00:58:07;5.60;;;4.30;;
47912;SDS011;33676;51.006;17.180;2023-07-16T01:00:36;5.30;;;4.80;;
47912;SDS011;33676;51.006;17.180;2023-07-16T01:03:08;7.00;;;5.10;;
47912;SDS011;33676;51.006;17.180;2023-07-16T01:05:45;7.70;;;6.70;;
47912;SDS011;33676;51.006;17.180;2023-07-16T01:08:56;5.90;;;5.30;;
47912;SDS011;33676;51.006;17.180;2023-07-16T01:11:29;10.00;;;9.20;;
47912;SDS011;33676;51.006;17.180;2023-07-16T01:13:59;8.70;;;7.90;;
47912;SDS011;33676;51.006;17.180;2023-07-16T01:16:28;6.90;;;6.30;;
47912;SDS011;33676;51.006;17.180;2023-07-16T01:18:57;5.00;;;4.60;;
47912;SDS011;33676;51.006;17.180;2023-07-16T01:21:31;6.10;;;5.60;;
47912;SDS011;33676;51.006;17.180;2023-07-16T01:24:13;14.40;;;13.00;;
47912;SDS011;33676;51.006;17.180;2023-07-16T01:30:09;5.40;;;4.80;;
47912;SDS011;33676;51.006;17.180;2023-07-16T01:35:13;5.10;;;4.50;;
47912;SDS011;33676;51.006;17.180;2023-07-16T01:37:43;4.70;;;4.30;;
47912;SDS011;33676;51.006;17.180;2023-07-16T01:40:11;6.60;;;5.80;;
47912;SDS011;33676;51.006;17.180;2023-07-16T01:42:40;6.40;;;5.80;;
47912;SDS011;33676;51.006;17.180;2023-07-16T01:45:08;7.90;;;7.10;;
47912;SDS011;33676;51.006;17.180;2023-07-16T01:48:09;6.00;;;5.50;;
47912;SDS011;33676;51.006;17.180;2023-07-16T01:50:42;8.80;;;7.90;;
47912;SDS011;33676;51.006;17.180;2023-07-16T01:53:10;7.20;;;6.80;;
47912;SDS011;33676;51.006;17.180;2023-07-16T01:55:39;6.40;;;5.80;;
47912;SDS011;33676;51.006;17.180;2023-07-16T01:58:07;7.10;;;4.40;;
47912;SDS011;33676;51.006;17.180;2023-07-16T02:00:36;4.80;;;4.50;;
47912;SDS011;33676;51.006;17.180;2023-07-16T02:03:05;6.10;;;5.40;;
47912;SDS011;33676;51.006;17.180;2023-07-16T02:05:34;5.00;;;4.70;;
47912;SDS011;33676;51.006;17.180;2023-07-16T02:08:02;4.60;;;4.30;;
47912;SDS011;33676;51.006;17.180;2023-07-16T02:10:31;6.70;;;6.20;;
47912;SDS011;33676;51.006;17.180;2023-07-16T02:12:59;5.90;;;5.40;;
47912;SDS011;33676;51.006;17.180;2023-07-16T02:15:28;5.50;;;5.10;;
47912;SDS011;33676;51.006;17.180;2023-07-16T02:17:56;5.80;;;5.00;;
47912;SDS011;33676;51.006;17.180;2023-07-16T02:20:25;6.60;;;6.20;;
47912;SDS011;33676;51.006;17.180;2023-07-16T02:22:53;7.10;;;6.40;;
47912;SDS011;33676;51.006;17.180;2023-07-16T02:25:22;6.10;;;4.80;;
47912;SDS011;33676;51.006;17.180;2023-07-16T02:27:50;7.10;;;5.10;;
47912;SDS011;33676;51.006;17.180;2023-07-16T02:30:19;5.70;;;5.10;;
47912;SDS011;33676;51.006;17.180;2023-07-16T02:32:47;5.90;;;5.40;;
47912;SDS011;33676;51.006;17.180;2023-07-16T02:35:17;6.00;;;5.30;;
47912;SDS011;33676;51.006;17.180;2023-07-16T02:37:45;7.60;;;6.90;;
47912;SDS011;33676;51.006;17.180;2023-07-16T02:40:14;6.20;;;5.70;;
47912;SDS011;33676;51.006;17.180;2023-07-16T02:42:42;5.70;;;5.20;;
47912;SDS011;33676;51.006;17.180;2023-07-16T02:45:11;6.80;;;6.20;;
47912;SDS011;33676;51.006;17.180;2023-07-16T02:47:39;6.40;;;5.90;;
47912;SDS011;33676;51.006;17.180;2023-07-16T02:50:08;6.10;;;4.80;;
47912;SDS011;33676;51.006;17.180;2023-07-16T02:52:37;5.40;;;4.90;;
47912;SDS011;33676;51.006;17.180;2023-07-16T02:55:06;5.60;;;5.10;;
47912;SDS011;33676;51.006;17.180;2023-07-16T02:57:35;5.70;;;5.00;;
47912;SDS011;33676;51.006;17.180;2023-07-16T03:00:03;5.50;;;4.90;;
47912;SDS011;33676;51.006;17.180;2023-07-16T03:02:32;6.30;;;5.50;;
47912;SDS011;33676;51.006;17.180;2023-07-16T03:05:01;5.80;;;5.40;;
47912;SDS011;33676;51.006;17.180;2023-07-16T03:07:29;6.90;;;6.20;;
47912;SDS011;33676;51.006;17.180;2023-07-16T03:09:59;6.00;;;5.60;;
47912;SDS011;33676;51.006;17.180;2023-07-16T03:12:28;7.40;;;6.80;;
47912;SDS011;33676;51.006;17.180;2023-07-16T03:14:56;6.50;;;6.10;;
47912;SDS011;33676;51.006;17.180;2023-07-16T03:17:25;6.00;;;5.50;;
47912;SDS011;33676;51.006;17.180;2023-07-16T03:19:53;6.90;;;6.20;;
47912;SDS011;33676;51.006;17.180;2023-07-16T03:22:22;6.00;;;5.50;;
47912;SDS011;33676;51.006;17.180;2023-07-16T03:24:51;5.70;;;5.40;;
47912;SDS011;33676;51.006;17.180;2023-07-16T03:27:19;6.40;;;5.90;;
47912;SDS011;33676;51.006;17.180;2023-07-16T03:29:50;5.40;;;5.00;;
47912;SDS011;33676;51.006;17.180;2023-07-16T03:32:18;5.70;;;5.30;;
47912;SDS011;33676;51.006;17.180;2023-07-16T03:34:47;5.60;;;5.20;;
47912;SDS011;33676;51.006;17.180;2023-07-16T03:37:15;5.70;;;5.30;;
47912;SDS011;33676;51.006;17.180;2023-07-16T03:39:44;6.30;;;5.90;;
47912;SDS011;33676;51.006;17.180;2023-07-16T03:42:12;5.70;;;5.20;;
47912;SDS011;33676;51.006;17.180;2023-07-16T03:44:41;5.20;;;4.90;;
47912;SDS011;33676;51.006;17.180;2023-07-16T03:47:09;6.50;;;5.80;;
47912;SDS011;33676;51.006;17.180;2023-07-16T03:49:38;7.10;;;6.10;;
47912;SDS011;33676;51.006;17.180;2023-07-16T03:52:06;6.80;;;5.80;;
47912;SDS011;33676;51.006;17.180;2023-07-16T03:54:35;6.20;;;5.60;;
47912;SDS011;33676;51.006;17.180;2023-07-16T03:57:03;6.00;;;5.60;;
47912;SDS011;33676;51.006;17.180;2023-07-16T03:59:32;5.80;;;5.00;;
47912;SDS011;33676;51.006;17.180;2023-07-16T04:02:00;5.70;;;5.30;;
47912;SDS011;33676;51.006;17.180;2023-07-16T04:04:29;5.90;;;5.40;;
47912;SDS011;33676;51.006;17.180;2023-07-16T04:06:58;5.50;;;5.00;;
47912;SDS011;33676;51.006;17.180;2023-07-16T04:09:26;5.80;;;5.00;;
47912;SDS011;33676;51.006;17.180;2023-07-16T04:11:55;10.10;;;5.10;;
47912;SDS011;33676;51.006;17.180;2023-07-16T04:14:23;5.40;;;5.00;;
47912;SDS011;33676;51.006;17.180;2023-07-16T04:16:52;6.10;;;4.90;;
47912;SDS011;33676;51.006;17.180;2023-07-16T04:19:20;6.10;;;5.30;;
47912;SDS011;33676;51.006;17.180;2023-07-16T04:21:48;4.80;;;4.50;;
47912;SDS011;33676;51.006;17.180;2023-07-16T04:24:17;6.60;;;5.10;;
47912;SDS011;33676;51.006;17.180;2023-07-16T04:26:45;4.60;;;4.30;;
47912;SDS011;33676;51.006;17.180;2023-07-16T04:29:14;5.20;;;4.70;;
47912;SDS011;33676;51.006;17.180;2023-07-16T04:31:42;5.30;;;5.00;;
47912;SDS011;33676;51.006;17.180;2023-07-16T04:34:11;5.20;;;4.80;;
47912;SDS011;33676;51.006;17.180;2023-07-16T04:36:39;6.00;;;5.50;;
47912;SDS011;33676;51.006;17.180;2023-07-16T04:39:07;5.60;;;4.90;;
47912;SDS011;33676;51.006;17.180;2023-07-16T04:41:36;5.90;;;5.10;;
47912;SDS011;33676;51.006;17.180;2023-07-16T04:44:05;5.10;;;4.60;;
47912;SDS011;33676;51.006;17.180;2023-07-16T04:46:33;4.90;;;4.50;;
47912;SDS011;33676;51.006;17.180;2023-07-16T04:49:02;5.10;;;4.60;;
47912;SDS011;33676;51.006;17.180;2023-07-16T04:51:32;4.60;;;4.00;;
47912;SDS011;33676;51.006;17.180;2023-07-16T04:54:01;4.70;;;4.00;;
47912;SDS011;33676;51.006;17.180;2023-07-16T04:56:29;5.60;;;4.80;;
47912;SDS011;33676;51.006;17.180;2023-07-16T04:58:57;5.90;;;4.10;;
47912;SDS011;33676;51.006;17.180;2023-07-16T05:01:26;5.10;;;4.70;;
47912;SDS011;33676;51.006;17.180;2023-07-16T05:03:55;5.10;;;3.80;;
47912;SDS011;33676;51.006;17.180;2023-07-16T05:06:23;4.60;;;4.20;;
47912;SDS011;33676;51.006;17.180;2023-07-16T05:08:52;4.40;;;4.00;;
47912;SDS011;33676;51.006;17.180;2023-07-16T05:11:20;5.90;;;4.40;;
47912;SDS011;33676;51.006;17.180;2023-07-16T05:13:49;6.10;;;4.10;;
47912;SDS011;33676;51.006;17.180;2023-07-16T05:16:17;4.30;;;3.80;;
47912;SDS011;33676;51.006;17.180;2023-07-16T05:18:46;5.10;;;4.80;;
47912;SDS011;33676;51.006;17.180;2023-07-16T05:21:15;4.40;;;4.00;;
47912;SDS011;33676;51.006;17.180;2023-07-16T05:23:44;3.70;;;3.50;;
47912;SDS011;33676;51.006;17.180;2023-07-16T05:26:12;7.50;;;3.90;;
47912;SDS011;33676;51.006;17.180;2023-07-16T05:28:41;4.20;;;3.90;;
47912;SDS011;33676;51.006;17.180;2023-07-16T05:31:10;4.80;;;4.00;;
47912;SDS011;33676;51.006;17.180;2023-07-16T05:33:38;5.00;;;3.60;;
47912;SDS011;33676;51.006;17.180;2023-07-16T05:36:07;6.50;;;3.30;;
47912;SDS011;33676;51.006;17.180;2023-07-16T05:38:35;7.20;;;3.50;;
47912;SDS011;33676;51.006;17.180;2023-07-16T05:41:04;4.30;;;2.80;;
47912;SDS011;33676;51.006;17.180;2023-07-16T05:43:33;3.80;;;3.40;;
47912;SDS011;33676;51.006;17.180;2023-07-16T05:46:01;4.40;;;2.90;;
47912;SDS011;33676;51.006;17.180;2023-07-16T05:48:30;3.00;;;2.80;;
47912;SDS011;33676;51.006;17.180;2023-07-16T05:50:58;3.00;;;2.70;;
47912;SDS011;33676;51.006;17.180;2023-07-16T05:53:27;5.30;;;3.40;;
47912;SDS011;33676;51.006;17.180;2023-07-16T05:55:55;3.60;;;3.20;;
47912;SDS011;33676;51.006;17.180;2023-07-16T05:58:23;4.80;;;3.00;;
47912;SDS011;33676;51.006;17.180;2023-07-16T06:00:52;2.90;;;2.70;;
47912;SDS011;33676;51.006;17.180;2023-07-16T06:03:20;4.30;;;2.90;;
47912;SDS011;33676;51.006;17.180;2023-07-16T06:05:49;4.80;;;3.20;;
47912;SDS011;33676;51.006;17.180;2023-07-16T06:08:17;3.30;;;2.90;;
47912;SDS011;33676;51.006;17.180;2023-07-16T06:10:45;2.40;;;2.30;;
47912;SDS011;33676;51.006;17.180;2023-07-16T06:13:14;4.20;;;2.80;;
47912;SDS011;33676;51.006;17.180;2023-07-16T06:15:43;3.00;;;2.20;;
47912;SDS011;33676;51.006;17.180;2023-07-16T06:18:11;2.90;;;2.70;;
47912;SDS011;33676;51.006;17.180;2023-07-16T06:20:46;2.30;;;2.00;;
47912;SDS011;33676;51.006;17.180;2023-07-16T06:23:15;3.10;;;2.20;;
47912;SDS011;33676;51.006;17.180;2023-07-16T06:25:45;3.20;;;2.50;;
47912;SDS011;33676;51.006;17.180;2023-07-16T06:28:15;6.70;;;2.90;;
47912;SDS011;33676;51.006;17.180;2023-07-16T06:30:43;2.80;;;2.60;;
47912;SDS011;33676;51.006;17.180;2023-07-16T06:33:12;3.00;;;2.30;;
47912;SDS011;33676;51.006;17.180;2023-07-16T06:35:44;2.30;;;2.20;;
47912;SDS011;33676;51.006;17.180;2023-07-16T06:38:14;2.60;;;2.40;;
47912;SDS011;33676;51.006;17.180;2023-07-16T06:40:51;2.90;;;2.20;;
47912;SDS011;33676;51.006;17.180;2023-07-16T06:43:20;3.40;;;2.70;;
47912;SDS011;33676;51.006;17.180;2023-07-16T06:45:49;2.60;;;2.40;;
47912;SDS011;33676;51.006;17.180;2023-07-16T06:48:22;4.80;;;2.10;;
47912;SDS011;33676;51.006;17.180;2023-07-16T06:50:50;2.20;;;2.00;;
47912;SDS011;33676;51.006;17.180;2023-07-16T06:53:19;9.40;;;2.80;;
47912;SDS011;33676;51.006;17.180;2023-07-16T06:55:48;2.50;;;2.30;;
47912;SDS011;33676;51.006;17.180;2023-07-16T06:58:17;2.70;;;2.50;;
47912;SDS011;33676;51.006;17.180;2023-07-16T07:00:45;2.50;;;2.30;;
47912;SDS011;33676;51.006;17.180;2023-07-16T07:03:14;3.60;;;2.30;;
47912;SDS011;33676;51.006;17.180;2023-07-16T07:05:42;1.90;;;1.80;;
47912;SDS011;33676;51.006;17.180;2023-07-16T07:08:11;5.00;;;2.80;;
47912;SDS011;33676;51.006;17.180;2023-07-16T07:10:39;2.40;;;2.20;;
47912;SDS011;33676;51.006;17.180;2023-07-16T07:13:09;3.30;;;2.30;;
47912;SDS011;33676;51.006;17.180;2023-07-16T07:15:37;4.30;;;1.60;;
47912;SDS011;33676;51.006;17.180;2023-07-16T07:18:06;1.90;;;1.80;;
47912;SDS011;33676;51.006;17.180;2023-07-16T07:20:34;1.40;;;1.40;;
47912;SDS011;33676;51.006;17.180;2023-07-16T07:23:03;5.10;;;2.30;;
47912;SDS011;33676;51.006;17.180;2023-07-16T07:25:33;2.30;;;1.30;;
47912;SDS011;33676;51.006;17.180;2023-07-16T07:28:02;3.10;;;1.80;;
47912;SDS011;33676;51.006;17.180;2023-07-16T07:30:31;2.10;;;1.70;;
47912;SDS011;33676;51.006;17.180;2023-07-16T07:32:59;1.60;;;1.50;;
47912;SDS011;33676;51.006;17.180;2023-07-16T07:35:28;1.40;;;1.30;;
47912;SDS011;33676;51.006;17.180;2023-07-16T07:37:56;1.40;;;1.40;;
47912;SDS011;33676;51.006;17.180;2023-07-16T07:40:26;2.40;;;1.70;;
47912;SDS011;33676;51.006;17.180;2023-07-16T07:42:54;1.30;;;1.20;;
47912;SDS011;33676;51.006;17.180;2023-07-16T07:45:23;1.70;;;1.70;;
47912;SDS011;33676;51.006;17.180;2023-07-16T07:47:52;2.20;;;1.60;;
47912;SDS011;33676;51.006;17.180;2023-07-16T07:50:21;1.70;;;1.60;;
47912;SDS011;33676;51.006;17.180;2023-07-16T07:52:49;2.10;;;1.90;;
47912;SDS011;33676;51.006;17.180;2023-07-16T07:55:18;2.70;;;1.70;;
47912;SDS011;33676;51.006;17.180;2023-07-16T07:57:47;2.10;;;1.80;;
47912;SDS011;33676;51.006;17.180;2023-07-16T08:00:15;2.80;;;1.90;;
47912;SDS011;33676;51.006;17.180;2023-07-16T08:02:44;2.30;;;1.90;;
47912;SDS011;33676;51.006;17.180;2023-07-16T08:05:13;1.90;;;1.70;;
47912;SDS011;33676;51.006;17.180;2023-07-16T08:07:41;1.60;;;1.50;;
47912;SDS011;33676;51.006;17.180;2023-07-16T08:10:10;1.90;;;1.40;;
47912;SDS011;33676;51.006;17.180;2023-07-16T08:12:39;2.00;;;1.90;;
47912;SDS011;33676;51.006;17.180;2023-07-16T08:15:11;1.70;;;1.60;;
47912;SDS011;33676;51.006;17.180;2023-07-16T08:17:44;1.50;;;1.40;;
47912;SDS011;33676;51.006;17.180;2023-07-16T08:20:14;1.60;;;1.60;;
47912;SDS011;33676;51.006;17.180;2023-07-16T08:22:42;1.50;;;1.50;;
47912;SDS011;33676;51.006;17.180;2023-07-16T08:25:11;1.30;;;1.20;;
47912;SDS011;33676;51.006;17.180;2023-07-16T08:27:39;1.60;;;1.60;;
47912;SDS011;33676;51.006;17.180;2023-07-16T08:30:08;1.50;;;1.40;;
47912;SDS011;33676;51.006;17.180;2023-07-16T08:32:36;2.10;;;1.40;;
47912;SDS011;33676;51.006;17.180;2023-07-16T08:35:05;1.60;;;1.60;;
47912;SDS011;33676;51.006;17.180;2023-07-16T08:37:34;1.50;;;1.40;;
47912;SDS011;33676;51.006;17.180;2023-07-16T08:40:03;1.40;;;1.30;;
47912;SDS011;33676;51.006;17.180;2023-07-16T08:42:32;1.60;;;1.60;;
47912;SDS011;33676;51.006;17.180;2023-07-16T08:45:01;1.80;;;1.50;;
47912;SDS011;33676;51.006;17.180;2023-07-16T08:47:29;1.70;;;1.60;;
47912;SDS011;33676;51.006;17.180;2023-07-16T08:49:58;1.60;;;1.60;;
47912;SDS011;33676;51.006;17.180;2023-07-16T08:52:29;1.40;;;1.40;;
47912;SDS011;33676;51.006;17.180;2023-07-16T08:54:57;1.60;;;1.50;;
47912;SDS011;33676;51.006;17.180;2023-07-16T08:57:26;1.50;;;1.40;;
47912;SDS011;33676;51.006;17.180;2023-07-16T08:59:55;14.40;;;13.30;;
47912;SDS011;33676;51.006;17.180;2023-07-16T09:02:24;2.40;;;2.20;;
47912;SDS011;33676;51.006;17.180;2023-07-16T09:04:53;2.00;;;1.70;;
47912;SDS011;33676;51.006;17.180;2023-07-16T09:07:23;3.30;;;2.00;;
47912;SDS011;33676;51.006;17.180;2023-07-16T09:09:55;1.70;;;1.60;;
47912;SDS011;33676;51.006;17.180;2023-07-16T09:12:28;1.60;;;1.50;;
47912;SDS011;33676;51.006;17.180;2023-07-16T09:14:58;1.60;;;1.50;;
47912;SDS011;33676;51.006;17.180;2023-07-16T09:17:26;1.50;;;1.50;;
47912;SDS011;33676;51.006;17.180;2023-07-16T09:19:55;1.90;;;1.80;;
47912;SDS011;33676;51.006;17.180;2023-07-16T09:22:23;1.50;;;1.50;;
47912;SDS011;33676;51.006;17.180;2023-07-16T09:24:52;2.10;;;1.70;;
47912;SDS011;33676;51.006;17.180;2023-07-16T09:27:20;1.80;;;1.80;;
47912;SDS011;33676;51.006;17.180;2023-07-16T09:29:49;5.40;;;1.70;;
47912;SDS011;33676;51.006;17.180;2023-07-16T09:32:19;1.60;;;1.50;;
47912;SDS011;33676;51.006;17.180;2023-07-16T09:34:51;2.00;;;1.90;;
47912;SDS011;33676;51.006;17.180;2023-07-16T09:37:19;1.90;;;1.80;;
47912;SDS011;33676;51.006;17.180;2023-07-16T09:39:48;1.80;;;1.80;;
47912;SDS011;33676;51.006;17.180;2023-07-16T09:42:17;2.10;;;2.00;;
47912;SDS011;33676;51.006;17.180;2023-07-16T09:44:49;1.70;;;1.60;;
47912;SDS011;33676;51.006;17.180;2023-07-16T09:47:21;2.30;;;2.00;;
47912;SDS011;33676;51.006;17.180;2023-07-16T09:49:53;1.80;;;1.70;;
47912;SDS011;33676;51.006;17.180;2023-07-16T09:52:21;2.60;;;1.60;;
47912;SDS011;33676;51.006;17.180;2023-07-16T09:54:51;2.00;;;1.80;;
47912;SDS011;33676;51.006;17.180;2023-07-16T09:57:23;1.50;;;1.50;;
47912;SDS011;33676;51.006;17.180;2023-07-16T09:59:54;2.20;;;1.60;;
47912;SDS011;33676;51.006;17.180;2023-07-16T10:02:26;1.80;;;1.80;;
47912;SDS011;33676;51.006;17.180;2023-07-16T10:04:55;1.90;;;1.80;;
47912;SDS011;33676;51.006;17.180;2023-07-16T10:07:25;2.80;;;1.90;;
47912;SDS011;33676;51.006;17.180;2023-07-16T10:09:56;1.50;;;1.40;;
47912;SDS011;33676;51.006;17.180;2023-07-16T10:12:26;1.90;;;1.90;;
47912;SDS011;33676;51.006;17.180;2023-07-16T10:14:55;1.50;;;1.50;;
47912;SDS011;33676;51.006;17.180;2023-07-16T10:17:26;1.40;;;1.40;;
47912;SDS011;33676;51.006;17.180;2023-07-16T10:20:05;1.70;;;1.60;;
47912;SDS011;33676;51.006;17.180;2023-07-16T10:22:46;1.50;;;1.50;;
47912;SDS011;33676;51.006;17.180;2023-07-16T10:27:47;1.70;;;1.60;;
47912;SDS011;33676;51.006;17.180;2023-07-16T10:30:17;1.70;;;1.70;;
47912;SDS011;33676;51.006;17.180;2023-07-16T10:32:46;1.80;;;1.70;;
47912;SDS011;33676;51.006;17.180;2023-07-16T10:35:14;2.00;;;1.60;;
47912;SDS011;33676;51.006;17.180;2023-07-16T10:37:43;4.10;;;2.30;;
47912;SDS011;33676;51.006;17.180;2023-07-16T10:40:12;1.60;;;1.50;;
47912;SDS011;33676;51.006;17.180;2023-07-16T10:42:42;2.20;;;2.00;;
47912;SDS011;33676;51.006;17.180;2023-07-16T10:45:12;1.90;;;1.80;;
47912;SDS011;33676;51.006;17.180;2023-07-16T10:47:52;1.80;;;1.70;;
47912;SDS011;33676;51.006;17.180;2023-07-16T10:50:22;2.10;;;2.00;;
47912;SDS011;33676;51.006;17.180;2023-07-16T10:52:55;1.80;;;1.70;;
47912;SDS011;33676;51.006;17.180;2023-07-16T10:55:26;2.30;;;2.10;;
47912;SDS011;33676;51.006;17.180;2023-07-16T10:57:56;2.10;;;2.00;;
47912;SDS011;33676;51.006;17.180;2023-07-16T11:00:25;2.00;;;1.90;;
47912;SDS011;33676;51.006;17.180;2023-07-16T11:02:53;2.80;;;1.80;;
47912;SDS011;33676;51.006;17.180;2023-07-16T11:05:22;2.10;;;2.00;;
47912;SDS011;33676;51.006;17.180;2023-07-16T11:07:50;2.30;;;2.20;;
47912;SDS011;33676;51.006;17.180;2023-07-16T11:10:23;2.70;;;2.00;;
47912;SDS011;33676;51.006;17.180;2023-07-16T11:12:54;4.70;;;2.20;;
47912;SDS011;33676;51.006;17.180;2023-07-16T11:15:33;2.40;;;2.30;;
47912;SDS011;33676;51.006;17.180;2023-07-16T11:18:02;2.10;;;2.00;;
47912;SDS011;33676;51.006;17.180;2023-07-16T11:20:31;1.80;;;1.60;;
47912;SDS011;33676;51.006;17.180;2023-07-16T11:23:00;3.30;;;1.50;;
47912;SDS011;33676;51.006;17.180;2023-07-16T11:25:29;2.40;;;2.10;;
47912;SDS011;33676;51.006;17.180;2023-07-16T11:27:57;1.90;;;1.80;;
47912;SDS011;33676;51.006;17.180;2023-07-16T11:30:26;2.50;;;1.70;;
47912;SDS011;33676;51.006;17.180;2023-07-16T11:32:57;2.20;;;1.60;;
47912;SDS011;33676;51.006;17.180;2023-07-16T11:35:27;1.90;;;1.80;;
47912;SDS011;33676;51.006;17.180;2023-07-16T11:37:55;1.50;;;1.50;;
47912;SDS011;33676;51.006;17.180;2023-07-16T11:40:24;1.70;;;1.40;;
47912;SDS011;33676;51.006;17.180;2023-07-16T11:42:52;1.70;;;1.60;;
47912;SDS011;33676;51.006;17.180;2023-07-16T11:45:26;1.70;;;1.50;;
47912;SDS011;33676;51.006;17.180;2023-07-16T11:47:55;1.70;;;1.70;;
47912;SDS011;33676;51.006;17.180;2023-07-16T11:50:23;1.70;;;1.60;;
47912;SDS011;33676;51.006;17.180;2023-07-16T11:52:59;1.90;;;1.60;;
47912;SDS011;33676;51.006;17.180;2023-07-16T11:55:29;1.50;;;1.50;;
47912;SDS011;33676;51.006;17.180;2023-07-16T11:57:58;1.90;;;1.60;;
47912;SDS011;33676;51.006;17.180;2023-07-16T12:00:28;1.80;;;1.70;;
47912;SDS011;33676;51.006;17.180;2023-07-16T12:02:57;1.70;;;1.60;;
47912;SDS011;33676;51.006;17.180;2023-07-16T12:05:25;2.20;;;2.10;;
47912;SDS011;33676;51.006;17.180;2023-07-16T12:08:15;3.20;;;1.70;;
47912;SDS011;33676;51.006;17.180;2023-07-16T12:10:44;2.10;;;1.90;;
47912;SDS011;33676;51.006;17.180;2023-07-16T12:13:12;1.90;;;1.80;;
47912;SDS011;33676;51.006;17.180;2023-07-16T12:15:41;2.10;;;2.00;;
47912;SDS011;33676;51.006;17.180;2023-07-16T12:18:09;1.40;;;1.40;;
47912;SDS011;33676;51.006;17.180;2023-07-16T12:20:38;1.80;;;1.70;;
47912;SDS011;33676;51.006;17.180;2023-07-16T12:23:08;1.60;;;1.60;;
47912;SDS011;33676;51.006;17.180;2023-07-16T12:25:37;1.50;;;1.50;;
47912;SDS011;33676;51.006;17.180;2023-07-16T12:28:05;1.20;;;1.20;;
47912;SDS011;33676;51.006;17.180;2023-07-16T12:30:34;2.60;;;1.80;;
47912;SDS011;33676;51.006;17.180;2023-07-16T12:33:03;1.70;;;1.60;;
47912;SDS011;33676;51.006;17.180;2023-07-16T12:35:33;1.60;;;1.60;;
47912;SDS011;33676;51.006;17.180;2023-07-16T12:38:01;1.40;;;1.40;;
47912;SDS011;33676;51.006;17.180;2023-07-16T12:40:30;1.60;;;1.50;;
47912;SDS011;33676;51.006;17.180;2023-07-16T12:42:59;1.80;;;1.50;;
47912;SDS011;33676;51.006;17.180;2023-07-16T12:45:27;1.40;;;1.40;;
47912;SDS011;33676;51.006;17.180;2023-07-16T12:47:56;1.40;;;1.40;;
47912;SDS011;33676;51.006;17.180;2023-07-16T12:50:25;1.20;;;1.20;;
47912;SDS011;33676;51.006;17.180;2023-07-16T12:52:56;1.20;;;1.10;;
47912;SDS011;33676;51.006;17.180;2023-07-16T12:55:24;1.50;;;1.40;;
47912;SDS011;33676;51.006;17.180;2023-07-16T12:57:53;2.00;;;1.90;;
47912;SDS011;33676;51.006;17.180;2023-07-16T13:00:21;1.80;;;1.30;;
47912;SDS011;33676;51.006;17.180;2023-07-16T13:02:50;1.40;;;1.40;;
47912;SDS011;33676;51.006;17.180;2023-07-16T13:05:19;1.70;;;1.60;;
47912;SDS011;33676;51.006;17.180;2023-07-16T13:07:47;1.80;;;1.70;;
47912;SDS011;33676;51.006;17.180;2023-07-16T13:10:16;1.20;;;1.20;;
47912;SDS011;33676;51.006;17.180;2023-07-16T13:12:51;1.30;;;1.20;;
47912;SDS011;33676;51.006;17.180;2023-07-16T13:15:20;2.20;;;2.00;;
47912;SDS011;33676;51.006;17.180;2023-07-16T13:17:48;1.30;;;1.20;;
47912;SDS011;33676;51.006;17.180;2023-07-16T13:20:18;1.80;;;1.40;;
47912;SDS011;33676;51.006;17.180;2023-07-16T13:22:48;1.40;;;1.40;;
47912;SDS011;33676;51.006;17.180;2023-07-16T13:25:17;2.30;;;2.20;;
47912;SDS011;33676;51.006;17.180;2023-07-16T13:27:45;1.80;;;1.70;;
47912;SDS011;33676;51.006;17.180;2023-07-16T13:30:14;2.30;;;2.20;;
47912;SDS011;33676;51.006;17.180;2023-07-16T13:32:43;1.60;;;1.60;;
47912;SDS011;33676;51.006;17.180;2023-07-16T13:35:12;1.90;;;1.80;;
47912;SDS011;33676;51.006;17.180;2023-07-16T13:37:40;1.80;;;1.70;;
47912;SDS011;33676;51.006;17.180;2023-07-16T13:40:10;1.70;;;1.60;;
47912;SDS011;33676;51.006;17.180;2023-07-16T13:42:39;2.40;;;2.10;;
47912;SDS011;33676;51.006;17.180;2023-07-16T13:45:07;2.70;;;2.40;;
47912;SDS011;33676;51.006;17.180;2023-07-16T13:47:36;1.40;;;1.40;;
47912;SDS011;33676;51.006;17.180;2023-07-16T13:50:08;1.80;;;1.60;;
47912;SDS011;33676;51.006;17.180;2023-07-16T13:52:40;2.30;;;2.10;;
47912;SDS011;33676;51.006;17.180;2023-07-16T13:55:08;1.60;;;1.60;;
47912;SDS011;33676;51.006;17.180;2023-07-16T13:57:37;1.90;;;1.80;;
47912;SDS011;33676;51.006;17.180;2023-07-16T14:00:06;1.60;;;1.60;;
47912;SDS011;33676;51.006;17.180;2023-07-16T14:02:38;1.60;;;1.60;;
47912;SDS011;33676;51.006;17.180;2023-07-16T14:05:07;1.60;;;1.60;;
47912;SDS011;33676;51.006;17.180;2023-07-16T14:07:35;1.90;;;1.80;;
47912;SDS011;33676;51.006;17.180;2023-07-16T14:10:10;1.30;;;1.20;;
47912;SDS011;33676;51.006;17.180;2023-07-16T14:12:39;1.10;;;1.10;;
47912;SDS011;33676;51.006;17.180;2023-07-16T14:15:07;1.80;;;1.70;;
47912;SDS011;33676;51.006;17.180;2023-07-16T14:17:36;1.60;;;1.60;;
47912;SDS011;33676;51.006;17.180;2023-07-16T14:20:05;1.60;;;1.60;;
47912;SDS011;33676;51.006;17.180;2023-07-16T14:22:34;1.50;;;1.50;;
47912;SDS011;33676;51.006;17.180;2023-07-16T14:25:03;2.30;;;2.20;;
47912;SDS011;33676;51.006;17.180;2023-07-16T14:27:32;1.30;;;1.30;;
47912;SDS011;33676;51.006;17.180;2023-07-16T14:30:01;2.20;;;1.60;;
47912;SDS011;33676;51.006;17.180;2023-07-16T14:32:34;1.20;;;1.20;;
47912;SDS011;33676;51.006;17.180;2023-07-16T14:35:03;1.60;;;1.60;;
47912;SDS011;33676;51.006;17.180;2023-07-16T14:37:32;1.80;;;1.70;;
47912;SDS011;33676;51.006;17.180;2023-07-16T14:40:00;1.70;;;1.70;;
47912;SDS011;33676;51.006;17.180;2023-07-16T14:42:29;2.30;;;1.50;;
47912;SDS011;33676;51.006;17.180;2023-07-16T14:44:57;2.00;;;1.90;;
47912;SDS011;33676;51.006;17.180;2023-07-16T14:47:26;1.60;;;1.60;;
47912;SDS011;33676;51.006;17.180;2023-07-16T14:49:54;1.70;;;1.50;;
47912;SDS011;33676;51.006;17.180;2023-07-16T14:52:23;1.60;;;1.60;;
47912;SDS011;33676;51.006;17.180;2023-07-16T14:54:51;1.40;;;1.40;;
47912;SDS011;33676;51.006;17.180;2023-07-16T14:57:20;2.50;;;2.30;;